createdAt,value
2022-08-02T00:00:58.497Z,17.00
2022-08-02T00:03:26.530Z,21.40
2022-08-02T00:05:54.420Z,20.88
2022-08-02T00:08:22.665Z,19.48
2022-08-02T00:10:50.799Z,19.55
2022-08-02T00:13:18.491Z,16.85
2022-08-02T00:15:46.152Z,17.58
2022-08-02T00:18:13.983Z,18.33
2022-08-02T00:20:41.666Z,21.25
2022-08-02T00:23:09.307Z,16.85
2022-08-02T00:25:37.179Z,21.13
2022-08-02T00:28:27.264Z,20.02
2022-08-02T00:30:57.973Z,18.08
2022-08-02T00:34:27.293Z,18.45
2022-08-02T00:36:14.785Z,19.17
2022-08-02T00:38:42.462Z,19.50
2022-08-02T00:41:15.135Z,22.00
2022-08-02T00:43:44.100Z,21.13
2022-08-02T00:46:11.720Z,20.02
2022-08-02T00:48:42.998Z,21.17
2022-08-02T00:51:12.521Z,22.92
2022-08-02T00:53:40.688Z,19.70
2022-08-02T00:56:08.910Z,20.92
2022-08-02T00:58:37.580Z,19.10
2022-08-02T01:01:05.384Z,23.80
2022-08-02T01:03:33.120Z,22.13
2022-08-02T01:06:16.187Z,21.92
2022-08-02T01:08:44.545Z,21.10
2022-08-02T01:11:12.758Z,20.20
2022-08-02T01:13:40.672Z,23.77
2022-08-02T01:16:19.074Z,23.25
2022-08-02T01:18:54.314Z,22.92
2022-08-02T01:22:13.074Z,21.73
2022-08-02T01:24:59.542Z,22.48
2022-08-02T01:27:36.002Z,22.20
2022-08-02T01:30:07.097Z,19.70
2022-08-02T01:32:43.517Z,20.58
2022-08-02T01:35:21.516Z,20.30
2022-08-02T01:38:29.427Z,20.15
2022-08-02T01:41:01.057Z,19.38
2022-08-02T01:43:30.547Z,19.33
2022-08-02T01:46:00.530Z,22.05
2022-08-02T01:48:31.733Z,21.70
2022-08-02T01:51:02.593Z,18.88
2022-08-02T01:53:31.935Z,18.23
2022-08-02T01:56:01.289Z,18.90
2022-08-02T01:58:33.830Z,20.27
2022-08-02T02:01:03.131Z,21.80
2022-08-02T02:03:34.260Z,19.73
2022-08-02T02:06:05.526Z,18.50
2022-08-02T02:08:39.909Z,21.98
2022-08-02T02:14:00.762Z,25.05
2022-08-02T02:16:32.058Z,19.38
2022-08-02T02:19:03.243Z,26.70
2022-08-02T02:21:31.542Z,22.50
2022-08-02T02:23:59.968Z,19.00
2022-08-02T02:26:31.366Z,21.15
2022-08-02T02:29:04.475Z,25.70
2022-08-02T02:31:37.864Z,19.60
2022-08-02T02:34:06.903Z,20.35
2022-08-02T02:36:36.994Z,20.98
2022-08-02T02:39:13.090Z,21.92
2022-08-02T02:41:43.526Z,25.42
2022-08-02T02:44:16.709Z,24.02
2022-08-02T02:46:45.168Z,27.73
2022-08-02T02:49:14.569Z,23.30
2022-08-02T02:51:43.952Z,21.58
2022-08-02T02:54:32.617Z,21.73
2022-08-02T02:57:02.583Z,22.88
2022-08-02T02:59:31.843Z,20.88
2022-08-02T03:02:00.113Z,24.73
2022-08-02T03:04:55.444Z,22.48
2022-08-02T03:07:17.484Z,23.73
2022-08-02T03:09:47.327Z,19.80
2022-08-02T03:12:27.166Z,20.92
2022-08-02T03:15:08.385Z,25.83
2022-08-02T03:17:44.256Z,24.63
2022-08-02T03:20:14.850Z,21.95
2022-08-02T03:22:44.006Z,21.95
2022-08-02T03:25:13.154Z,21.50
2022-08-02T03:27:41.041Z,22.05
2022-08-02T03:30:11.669Z,23.77
2022-08-02T03:32:41.501Z,22.33
2022-08-02T03:35:12.688Z,21.45
2022-08-02T03:37:41.607Z,29.45
2022-08-02T03:40:11.565Z,22.88
2022-08-02T03:42:40.547Z,25.08
2022-08-02T03:45:12.616Z,24.45
2022-08-02T03:47:41.806Z,23.70
2022-08-02T03:50:13.560Z,24.30
2022-08-02T03:52:45.555Z,25.25
2022-08-02T03:55:14.398Z,24.15
2022-08-02T03:57:42.921Z,26.80
2022-08-02T04:00:17.270Z,24.10
2022-08-02T04:02:45.218Z,22.80
2022-08-02T04:05:13.444Z,25.77
2022-08-02T04:08:33.215Z,21.85
2022-08-02T04:10:28.917Z,22.60
2022-08-02T04:12:56.993Z,21.60
2022-08-02T04:15:25.036Z,22.65
2022-08-02T04:17:59.553Z,19.88
2022-08-02T04:20:33.008Z,19.75
2022-08-02T04:23:10.062Z,20.33
2022-08-02T04:25:40.471Z,23.67
2022-08-02T04:28:17.665Z,20.30
2022-08-02T04:30:51.293Z,19.02
2022-08-02T04:33:19.556Z,17.83
2022-08-02T04:35:47.385Z,18.23
2022-08-02T04:38:16.361Z,21.83
2022-08-02T04:40:55.515Z,18.60
2022-08-02T04:43:23.717Z,16.17
2022-08-02T04:45:54.020Z,21.73
2022-08-02T04:48:22.606Z,16.83
2022-08-02T04:50:51.010Z,21.42
2022-08-02T04:53:19.096Z,21.85
2022-08-02T04:55:46.980Z,19.20
2022-08-02T04:58:38.672Z,17.15
2022-08-02T05:01:03.239Z,13.52
2022-08-02T05:03:30.978Z,15.43
2022-08-02T05:06:00.610Z,11.50
2022-08-02T05:08:28.539Z,13.32
2022-08-02T05:10:56.155Z,20.27
2022-08-02T05:13:23.852Z,15.63
2022-08-02T05:15:51.654Z,14.43
2022-08-02T05:18:19.383Z,12.23
2022-08-02T05:20:47.063Z,10.77
2022-08-02T05:23:14.913Z,12.57
2022-08-02T05:25:42.653Z,10.18
2022-08-02T05:28:11.809Z,8.93
2022-08-02T05:30:40.397Z,11.05
2022-08-02T05:33:08.421Z,10.77
2022-08-02T05:35:36.150Z,10.30
2022-08-02T05:38:04.096Z,9.45
2022-08-02T05:40:31.729Z,8.25
2022-08-02T05:42:59.345Z,10.90
2022-08-02T05:45:27.468Z,9.38
2022-08-02T05:47:55.049Z,6.78
2022-08-02T05:50:24.425Z,9.52
2022-08-02T05:53:05.204Z,6.72
2022-08-02T05:55:42.794Z,4.90
2022-08-02T05:58:44.058Z,5.47
2022-08-02T06:01:15.845Z,5.88
2022-08-02T06:03:52.206Z,7.15
2022-08-02T06:06:25.212Z,7.88
2022-08-02T06:09:00.938Z,3.63
2022-08-02T06:11:43.158Z,7.13
2022-08-02T06:14:34.265Z,3.90
2022-08-02T06:17:05.692Z,3.72
2022-08-02T06:19:46.822Z,7.60
2022-08-02T06:22:40.661Z,4.72
2022-08-02T06:25:47.871Z,5.05
2022-08-02T06:27:57.138Z,9.55
2022-08-02T06:30:25.131Z,3.45
2022-08-02T06:32:52.992Z,6.70
2022-08-02T06:35:20.925Z,4.53
2022-08-02T06:37:58.388Z,4.10
2022-08-02T06:40:29.767Z,4.55
2022-08-02T06:43:00.338Z,3.17
2022-08-02T06:45:28.022Z,5.82
2022-08-02T06:47:55.802Z,4.30
2022-08-02T06:50:23.837Z,6.30
2022-08-02T06:52:51.736Z,8.10
2022-08-02T06:55:19.590Z,3.45
2022-08-02T06:57:47.462Z,3.00
2022-08-02T07:00:15.431Z,3.63
2022-08-02T07:02:43.270Z,3.13
2022-08-02T07:05:11.264Z,2.35
2022-08-02T07:07:39.067Z,2.63
2022-08-02T07:10:06.932Z,4.97
2022-08-02T07:12:35.502Z,2.80
2022-08-02T07:15:06.316Z,4.60
2022-08-02T07:17:35.066Z,4.80
2022-08-02T07:20:03.761Z,2.38
2022-08-02T07:22:31.503Z,5.75
2022-08-02T07:25:00.710Z,4.80
2022-08-02T07:27:30.124Z,5.53
2022-08-02T07:29:58.241Z,3.38
2022-08-02T07:32:30.890Z,6.05
2022-08-02T07:34:59.883Z,3.80
2022-08-02T07:37:54.090Z,4.00
2022-08-02T07:40:22.807Z,2.17
2022-08-02T07:42:57.930Z,3.53
2022-08-02T07:45:32.361Z,4.03
2022-08-02T07:48:00.217Z,2.83
2022-08-02T07:50:28.544Z,2.88
2022-08-02T07:52:57.765Z,4.80
2022-08-02T07:55:40.082Z,2.40
2022-08-02T07:58:13.647Z,1.75
2022-08-02T08:03:13.503Z,6.60
2022-08-02T08:05:41.309Z,2.50
2022-08-02T08:08:13.618Z,2.70
2022-08-02T08:10:44.862Z,2.97
2022-08-02T08:13:12.620Z,6.43
2022-08-02T08:15:40.255Z,3.58
2022-08-02T08:18:08.112Z,7.72
2022-08-02T08:20:37.993Z,3.55
2022-08-02T08:23:05.670Z,4.40
2022-08-02T08:25:39.887Z,7.25
2022-08-02T08:28:09.437Z,3.10
2022-08-02T08:30:37.297Z,3.75
2022-08-02T08:33:05.248Z,5.00
2022-08-02T08:35:32.819Z,6.18
2022-08-02T08:38:05.469Z,2.80
2022-08-02T08:40:35.541Z,3.35
2022-08-02T08:43:04.322Z,6.18
2022-08-02T08:45:31.999Z,2.15
2022-08-02T08:48:15.980Z,3.03
2022-08-02T08:51:05.703Z,4.70
2022-08-02T08:53:43.981Z,3.03
2022-08-02T08:56:16.347Z,4.55
2022-08-02T08:58:47.559Z,2.33
2022-08-02T09:01:16.944Z,5.90
2022-08-02T09:03:45.777Z,10.57
2022-08-02T09:06:13.499Z,2.88
2022-08-02T09:08:41.406Z,2.42
2022-08-02T09:11:23.148Z,4.53
2022-08-02T09:14:01.192Z,4.63
2022-08-02T09:16:43.754Z,2.53
2022-08-02T09:19:19.075Z,5.07
2022-08-02T09:21:48.858Z,4.15
2022-08-02T09:24:22.834Z,4.07
2022-08-02T09:26:51.354Z,5.40
2022-08-02T09:29:22.420Z,5.75
2022-08-02T09:31:51.045Z,2.25
2022-08-02T09:34:19.705Z,3.50
2022-08-02T09:36:48.470Z,4.05
2022-08-02T09:39:23.927Z,2.78
2022-08-02T09:41:51.840Z,2.30
2022-08-02T09:44:20.559Z,6.43
2022-08-02T09:46:48.248Z,5.15
2022-08-02T09:49:18.915Z,5.97
2022-08-02T09:51:49.695Z,2.47
2022-08-02T09:54:25.765Z,5.85
2022-08-02T09:56:59.099Z,6.45
2022-08-02T10:02:01.781Z,5.40
2022-08-02T10:04:34.523Z,5.07
2022-08-02T10:07:22.250Z,4.68
2022-08-02T10:09:52.051Z,2.83
2022-08-02T10:12:23.034Z,5.45
2022-08-02T10:14:54.196Z,4.03
2022-08-02T10:17:21.843Z,3.83
2022-08-02T10:20:02.288Z,4.45
2022-08-02T10:22:36.325Z,3.75
2022-08-02T10:25:06.544Z,3.22
2022-08-02T10:27:55.484Z,4.15
2022-08-02T10:30:26.585Z,4.78
2022-08-02T10:32:56.223Z,7.95
2022-08-02T10:35:26.661Z,4.95
2022-08-02T10:38:04.014Z,4.10
2022-08-02T10:40:53.482Z,3.10
2022-08-02T10:43:36.474Z,4.97
2022-08-02T10:46:24.461Z,5.28
2022-08-02T10:52:06.033Z,3.55
2022-08-02T10:54:33.751Z,4.78
2022-08-02T10:57:02.497Z,6.97
2022-08-02T10:59:36.826Z,4.43
2022-08-02T11:02:07.130Z,4.38
2022-08-02T11:04:37.271Z,4.03
2022-08-02T11:07:10.821Z,5.85
2022-08-02T11:09:39.151Z,4.38
2022-08-02T11:12:13.454Z,3.33
2022-08-02T11:14:44.290Z,7.97
2022-08-02T11:17:16.602Z,4.53
2022-08-02T11:20:12.497Z,5.40
2022-08-02T11:22:41.446Z,8.15
2022-08-02T11:25:24.642Z,4.28
2022-08-02T11:27:59.635Z,7.43
2022-08-02T11:30:27.996Z,4.90
2022-08-02T11:32:59.955Z,4.43
2022-08-02T11:35:38.887Z,6.82
2022-08-02T11:38:20.421Z,3.83
2022-08-02T11:40:49.479Z,8.55
2022-08-02T11:43:21.999Z,5.05
2022-08-02T11:45:52.468Z,6.88
2022-08-02T11:48:33.848Z,4.80
2022-08-02T11:51:10.529Z,5.00
2022-08-02T11:53:50.872Z,5.32
2022-08-02T11:56:32.546Z,9.68
2022-08-02T11:59:07.357Z,12.38
2022-08-02T12:01:45.633Z,6.93
2022-08-02T12:04:19.428Z,7.70
2022-08-02T12:06:58.776Z,7.25
2022-08-02T12:09:28.706Z,8.13
2022-08-02T12:11:58.123Z,7.05
2022-08-02T12:14:28.755Z,4.85
2022-08-02T12:17:15.625Z,5.38
2022-08-02T12:19:44.365Z,6.13
2022-08-02T12:22:27.464Z,4.38
2022-08-02T12:24:57.674Z,4.15
2022-08-02T12:27:30.169Z,4.10
2022-08-02T12:30:06.821Z,5.28
2022-08-02T12:32:34.829Z,4.75
2022-08-02T12:35:26.039Z,7.70
2022-08-02T12:37:54.734Z,4.95
2022-08-02T12:40:32.292Z,4.82
2022-08-02T12:43:01.288Z,6.50
2022-08-02T12:45:38.308Z,6.22
2022-08-02T12:48:09.256Z,6.53
2022-08-02T12:50:37.912Z,6.80
2022-08-02T12:53:17.622Z,6.05
2022-08-02T12:55:59.911Z,6.85
2022-08-02T12:58:46.041Z,3.50
2022-08-02T13:01:25.576Z,4.35
2022-08-02T13:04:10.120Z,4.00
2022-08-02T13:06:44.450Z,4.50
2022-08-02T13:09:15.699Z,4.60
2022-08-02T13:11:44.387Z,4.45
2022-08-02T13:14:13.882Z,5.10
2022-08-02T13:16:43.712Z,4.93
2022-08-02T13:19:13.166Z,6.60
2022-08-02T13:22:11.163Z,6.38
2022-08-02T13:24:39.990Z,5.07
2022-08-02T13:27:16.814Z,8.00
2022-08-02T13:29:44.743Z,3.35
2022-08-02T13:32:12.760Z,5.57
2022-08-02T13:34:40.589Z,6.57
2022-08-02T13:37:08.435Z,10.05
2022-08-02T13:39:36.114Z,4.53
2022-08-02T13:42:04.071Z,10.55
2022-08-02T13:44:34.899Z,4.03
2022-08-02T13:47:03.065Z,6.10
2022-08-02T13:49:49.657Z,4.50
2022-08-02T13:52:18.824Z,4.00
2022-08-02T13:54:46.547Z,4.60
2022-08-02T13:57:14.181Z,5.88
2022-08-02T13:59:57.199Z,5.15
2022-08-02T14:02:30.461Z,5.88
2022-08-02T14:04:58.431Z,7.82
2022-08-02T14:07:26.157Z,5.63
2022-08-02T14:09:53.858Z,5.65
2022-08-02T14:12:21.701Z,4.35
2022-08-02T14:14:49.522Z,5.00
2022-08-02T14:17:18.867Z,4.80
2022-08-02T14:19:47.091Z,6.55
2022-08-02T14:22:14.942Z,7.28
2022-08-02T14:24:42.606Z,4.68
2022-08-02T14:27:10.854Z,5.60
2022-08-02T14:29:39.086Z,3.42
2022-08-02T14:32:07.045Z,3.63
2022-08-02T14:34:34.811Z,6.65
2022-08-02T14:37:02.477Z,4.47
2022-08-02T14:39:43.032Z,3.95
2022-08-02T14:42:18.393Z,4.70
2022-08-02T14:44:46.079Z,6.25
2022-08-02T14:47:13.802Z,3.42
2022-08-02T14:49:44.152Z,6.43
2022-08-02T14:52:14.761Z,7.07
2022-08-02T14:54:43.214Z,5.15
2022-08-02T14:57:11.411Z,6.40
2022-08-02T14:59:42.304Z,5.15
2022-08-02T15:02:11.906Z,4.15
2022-08-02T15:04:42.839Z,5.65
2022-08-02T15:07:12.132Z,4.03
2022-08-02T15:09:40.344Z,6.43
2022-08-02T15:12:09.552Z,3.80
2022-08-02T15:14:38.429Z,5.47
2022-08-02T15:17:07.124Z,9.23
2022-08-02T15:19:56.177Z,7.80
2022-08-02T15:22:22.995Z,3.95
2022-08-02T15:24:50.956Z,4.03
2022-08-02T15:27:18.885Z,6.68
2022-08-02T15:29:47.382Z,4.93
2022-08-02T15:32:18.909Z,3.67
2022-08-02T15:34:47.206Z,4.03
2022-08-02T15:37:15.013Z,5.93
2022-08-02T15:39:42.692Z,3.60
2022-08-02T15:42:10.734Z,3.67
2022-08-02T15:44:38.863Z,6.43
2022-08-02T15:47:07.587Z,5.97
2022-08-02T15:49:39.311Z,5.00
2022-08-02T15:52:09.262Z,3.83
2022-08-02T15:54:36.896Z,6.40
2022-08-02T15:57:04.713Z,5.85
2022-08-02T15:59:32.655Z,5.55
2022-08-02T16:02:00.344Z,3.75
2022-08-02T16:04:28.219Z,5.63
2022-08-02T16:06:56.094Z,5.57
2022-08-02T16:09:23.751Z,4.72
2022-08-02T16:11:51.415Z,5.50
2022-08-02T16:14:19.204Z,5.47
2022-08-02T16:16:46.864Z,4.53
2022-08-02T16:19:45.822Z,4.38
2022-08-02T16:22:03.091Z,5.22
2022-08-02T16:24:30.883Z,5.60
2022-08-02T16:26:58.861Z,4.38
2022-08-02T16:29:26.871Z,5.20
2022-08-02T16:32:01.094Z,5.05
2022-08-02T16:34:44.829Z,5.88
2022-08-02T16:37:16.789Z,4.93
2022-08-02T16:39:44.616Z,4.13
2022-08-02T16:42:12.269Z,5.25
2022-08-02T16:44:53.579Z,4.00
2022-08-02T16:47:43.332Z,5.47
2022-08-02T16:50:11.418Z,5.03
2022-08-02T16:52:39.637Z,3.63
2022-08-02T16:55:10.156Z,4.18
2022-08-02T16:57:45.453Z,4.65
2022-08-02T17:00:18.523Z,5.72
2022-08-02T17:02:46.903Z,6.15
2022-08-02T17:05:15.028Z,7.13
2022-08-02T17:08:16.386Z,6.68
2022-08-02T17:10:34.425Z,8.02
2022-08-02T17:13:11.140Z,5.70
2022-08-02T17:16:08.353Z,3.97
2022-08-02T17:18:29.314Z,5.55
2022-08-02T17:20:57.730Z,9.98
2022-08-02T17:23:47.116Z,10.35
2022-08-02T17:26:13.715Z,6.88
2022-08-02T17:29:07.062Z,7.53
2022-08-02T17:31:37.314Z,5.78
2022-08-02T17:34:11.738Z,7.18
2022-08-02T17:36:39.834Z,4.22
2022-08-02T17:39:08.025Z,7.30
2022-08-02T17:41:39.801Z,10.10
2022-08-02T17:44:37.608Z,3.83
2022-08-02T17:47:08.778Z,4.57
2022-08-02T17:49:44.443Z,8.48
2022-08-02T17:52:50.913Z,5.70
2022-08-02T17:55:06.247Z,10.18
2022-08-02T17:57:56.050Z,7.85
2022-08-02T18:00:21.859Z,6.95
2022-08-02T18:02:50.575Z,4.22
2022-08-02T18:05:40.123Z,6.97
2022-08-02T18:08:22.719Z,5.32
2022-08-02T18:10:53.390Z,5.97
2022-08-02T18:13:21.359Z,7.32
2022-08-02T18:15:52.452Z,9.02
2022-08-02T18:18:29.404Z,7.38
2022-08-02T18:21:15.640Z,12.13
2022-08-02T18:23:48.653Z,13.55
2022-08-02T18:26:20.834Z,8.02
2022-08-02T18:28:49.176Z,10.40
2022-08-02T18:31:22.228Z,11.30
2022-08-02T18:33:54.494Z,10.23
2022-08-02T18:36:29.582Z,15.32
2022-08-02T18:38:58.192Z,12.07
2022-08-02T18:41:25.977Z,9.77
2022-08-02T18:43:56.482Z,12.73
2022-08-02T18:46:26.559Z,15.02
2022-08-02T18:48:58.258Z,11.95
2022-08-02T18:51:36.759Z,16.05
2022-08-02T18:54:05.242Z,13.63
2022-08-02T18:56:32.951Z,12.65
2022-08-02T18:59:07.571Z,9.90
2022-08-02T19:01:44.916Z,14.85
2022-08-02T19:04:26.960Z,17.08
2022-08-02T19:06:56.678Z,10.70
2022-08-02T19:09:31.789Z,16.95
2022-08-02T19:11:59.460Z,13.15
2022-08-02T19:14:28.866Z,18.70
2022-08-02T19:17:00.479Z,13.90
2022-08-02T19:19:44.287Z,18.88
2022-08-02T19:22:26.522Z,15.10
2022-08-02T19:24:59.938Z,15.98
2022-08-02T19:27:32.533Z,23.30
2022-08-02T19:30:04.388Z,14.75
2022-08-02T19:32:41.830Z,17.48
2022-08-02T19:35:30.542Z,15.23
2022-08-02T19:38:08.558Z,18.92
2022-08-02T19:40:39.949Z,25.30
2022-08-02T19:44:24.508Z,18.70
2022-08-02T19:45:57.389Z,16.73
2022-08-02T19:48:27.061Z,17.00
2022-08-02T19:50:59.476Z,16.60
2022-08-02T19:53:47.653Z,12.63
2022-08-02T19:56:25.673Z,16.73
2022-08-02T19:58:55.715Z,13.88
2022-08-02T20:01:36.829Z,14.25
2022-08-02T20:04:13.532Z,17.40
2022-08-02T20:06:45.048Z,19.45
2022-08-02T20:09:21.009Z,15.25
2022-08-02T20:11:54.517Z,15.48
2022-08-02T20:14:27.434Z,15.85
2022-08-02T20:16:56.840Z,17.23
2022-08-02T20:19:25.323Z,15.95
2022-08-02T20:21:59.796Z,18.70
2022-08-02T20:24:29.547Z,23.30
2022-08-02T20:26:59.473Z,22.02
2022-08-02T20:29:43.114Z,31.08
2022-08-02T20:32:22.392Z,27.95
2022-08-02T20:34:50.933Z,28.30
2022-08-02T20:37:59.722Z,24.48
2022-08-02T20:40:10.199Z,23.25
2022-08-02T20:42:47.634Z,26.30
2022-08-02T20:45:16.434Z,25.63
2022-08-02T20:47:45.908Z,23.88
2022-08-02T20:50:37.824Z,24.48
2022-08-02T20:53:06.487Z,28.42
2022-08-02T20:55:35.816Z,26.67
2022-08-02T20:58:04.637Z,20.92
2022-08-02T21:00:33.398Z,17.63
2022-08-02T21:03:02.652Z,18.70
2022-08-02T21:05:54.084Z,14.23
2022-08-02T21:08:21.614Z,16.27
2022-08-02T21:10:52.686Z,18.02
2022-08-02T21:13:22.345Z,15.65
2022-08-02T21:15:51.671Z,14.65
2022-08-02T21:18:21.895Z,19.20
2022-08-02T21:21:00.390Z,16.00
2022-08-02T21:23:28.743Z,13.88
2022-08-02T21:25:59.017Z,16.80
2022-08-02T21:28:35.099Z,16.90
2022-08-02T21:31:15.488Z,16.10
2022-08-02T21:33:56.790Z,15.95
2022-08-02T21:36:30.514Z,13.90
2022-08-02T21:39:05.934Z,15.27
2022-08-02T21:41:46.107Z,16.17
2022-08-02T21:47:04.306Z,16.88
2022-08-02T21:50:08.771Z,15.02
2022-08-02T21:52:25.265Z,19.25
2022-08-02T21:54:55.783Z,16.95
2022-08-02T21:57:24.521Z,14.90
2022-08-02T21:59:55.537Z,25.25
2022-08-02T22:02:29.452Z,17.98
2022-08-02T22:04:58.863Z,16.90
2022-08-02T22:07:27.354Z,17.17
2022-08-02T22:09:55.521Z,15.85
2022-08-02T22:12:26.404Z,18.05
2022-08-02T22:14:56.313Z,19.75
2022-08-02T22:17:50.713Z,19.33
2022-08-02T22:20:19.901Z,20.80
2022-08-02T22:22:52.626Z,23.52
2022-08-02T22:25:27.049Z,19.35
2022-08-02T22:28:35.652Z,19.73
2022-08-02T22:30:55.340Z,21.65
2022-08-02T22:33:47.082Z,23.20
2022-08-02T22:36:29.759Z,28.80
2022-08-02T22:38:57.978Z,28.95
2022-08-02T22:41:25.698Z,23.83
2022-08-02T22:44:13.554Z,25.15
2022-08-02T22:46:42.490Z,25.02
2022-08-02T22:49:10.120Z,23.42
2022-08-02T22:51:57.925Z,26.40
2022-08-02T22:54:25.666Z,24.75
2022-08-02T22:56:53.356Z,24.38
2022-08-02T22:59:03.435Z,14.23
2022-08-02T22:59:39.220Z,26.10
2022-08-02T23:02:08.710Z,22.05
2022-08-02T23:04:37.665Z,23.55
2022-08-02T23:07:06.117Z,24.95
2022-08-02T23:09:33.826Z,26.13
2022-08-02T23:12:02.094Z,23.40
2022-08-02T23:14:30.617Z,21.52
2022-08-02T23:17:16.792Z,23.20
2022-08-02T23:19:50.624Z,22.90
2022-08-02T23:22:29.400Z,22.30
2022-08-02T23:25:00.877Z,23.23
2022-08-02T23:27:29.725Z,26.42
2022-08-02T23:29:57.464Z,26.98
2022-08-02T23:32:26.092Z,23.85
2022-08-02T23:34:58.058Z,26.60
2022-08-02T23:37:26.486Z,23.58
2022-08-02T23:39:54.192Z,25.83
2022-08-02T23:42:23.463Z,26.90
2022-08-02T23:44:51.891Z,31.27
2022-08-02T23:47:20.125Z,22.33
2022-08-02T23:49:48.068Z,24.98
2022-08-02T23:52:15.964Z,27.95
2022-08-02T23:54:43.681Z,24.88
2022-08-02T23:57:20.847Z,24.02
2022-08-02T23:59:51.246Z,29.30
